createdAt,value
2019-02-05T00:02:18.209Z,526.97
2019-02-05T00:04:49.118Z,366.43
2019-02-05T00:07:19.738Z,490.63
2019-02-05T00:09:50.436Z,531.70
2019-02-05T00:12:21.817Z,551.60
2019-02-05T00:14:52.368Z,574.97
2019-02-05T00:17:22.841Z,613.63
2019-02-05T00:19:53.467Z,565.97
2019-02-05T00:22:24.575Z,554.37
2019-02-05T00:24:55.238Z,589.87
2019-02-05T00:27:25.920Z,571.77
2019-02-05T00:29:56.899Z,493.57
2019-02-05T00:32:27.539Z,542.87
2019-02-05T00:34:58.069Z,635.40
2019-02-05T00:37:28.563Z,543.33
2019-02-05T00:39:59.184Z,562.20
2019-02-05T00:42:29.830Z,540.00
2019-02-05T00:45:00.423Z,620.23
2019-02-05T00:47:32.325Z,530.63
2019-02-05T00:50:03.299Z,362.63
2019-02-05T00:52:33.799Z,359.70
2019-02-05T00:55:04.929Z,307.13
2019-02-05T00:57:35.500Z,268.30
2019-02-05T01:00:13.352Z,309.03
2019-02-05T01:02:43.996Z,295.23
2019-02-05T01:05:15.070Z,274.53
2019-02-05T01:07:45.898Z,254.40
2019-02-05T01:10:17.132Z,273.43
2019-02-05T01:12:47.874Z,273.27
2019-02-05T01:15:19.472Z,263.90
2019-02-05T01:17:50.068Z,251.13
2019-02-05T01:20:20.687Z,266.83
2019-02-05T01:22:51.511Z,239.47
2019-02-05T01:25:22.533Z,233.53
2019-02-05T01:27:53.574Z,248.37
2019-02-05T01:30:26.807Z,254.50
2019-02-05T01:32:58.880Z,241.10
2019-02-05T01:35:29.324Z,254.13
2019-02-05T01:38:18.913Z,231.50
2019-02-05T01:40:49.455Z,263.13
2019-02-05T01:43:20.005Z,249.87
2019-02-05T01:45:50.610Z,226.87
2019-02-05T01:48:21.178Z,273.03
2019-02-05T01:50:51.671Z,256.37
2019-02-05T01:53:22.345Z,228.60
2019-02-05T01:55:52.982Z,181.10
2019-02-05T01:58:23.418Z,345.27
2019-02-05T02:00:53.911Z,419.33
2019-02-05T02:03:24.881Z,340.27
2019-02-05T02:05:55.510Z,343.70
2019-02-05T02:08:26.130Z,227.33
2019-02-05T02:10:56.772Z,285.23
2019-02-05T02:13:27.326Z,260.37
2019-02-05T02:15:58.039Z,257.13
2019-02-05T02:18:28.684Z,251.00
2019-02-05T02:20:59.281Z,224.73
2019-02-05T02:23:29.961Z,210.63
2019-02-05T02:26:00.603Z,259.83
2019-02-05T02:28:31.458Z,204.37
2019-02-05T02:31:02.562Z,208.67
2019-02-05T02:33:33.163Z,214.10
2019-02-05T02:36:04.004Z,185.13
2019-02-05T02:38:34.634Z,207.13
2019-02-05T02:41:05.308Z,218.17
2019-02-05T02:43:35.861Z,210.87
2019-02-05T02:46:07.021Z,207.67
2019-02-05T02:48:37.579Z,203.63
2019-02-05T02:51:08.006Z,214.70
2019-02-05T02:53:38.685Z,225.67
2019-02-05T02:56:09.420Z,226.30
2019-02-05T02:58:39.941Z,206.80
2019-02-05T03:01:10.657Z,203.00
2019-02-05T03:03:41.379Z,194.57
2019-02-05T03:06:15.142Z,211.87
2019-02-05T03:08:45.689Z,196.70
2019-02-05T03:11:16.524Z,193.80
2019-02-05T03:13:47.238Z,185.43
2019-02-05T03:16:17.711Z,172.07
2019-02-05T03:18:48.256Z,182.43
2019-02-05T03:21:18.666Z,184.13
2019-02-05T03:23:49.261Z,172.87
2019-02-05T03:26:19.948Z,175.90
2019-02-05T03:28:50.520Z,170.23
2019-02-05T03:31:21.081Z,177.47
2019-02-05T03:33:51.645Z,169.17
2019-02-05T03:36:22.117Z,175.43
2019-02-05T03:38:52.671Z,159.17
2019-02-05T03:41:23.641Z,165.10
2019-02-05T03:43:54.379Z,158.67
2019-02-05T03:46:24.979Z,157.83
2019-02-05T03:48:56.165Z,175.57
2019-02-05T03:52:04.956Z,164.87
2019-02-05T03:55:27.268Z,182.13
2019-02-05T03:58:55.346Z,160.83
2019-02-05T04:02:13.598Z,150.53
2019-02-05T04:05:32.439Z,145.37
2019-02-05T04:08:34.221Z,128.30
2019-02-05T04:11:48.341Z,140.50
2019-02-05T04:15:10.832Z,127.83
2019-02-05T04:18:24.912Z,128.37
2019-02-05T04:21:45.311Z,140.57
2019-02-05T04:24:56.119Z,121.93
2019-02-05T04:28:16.732Z,120.80
2019-02-05T04:31:15.933Z,126.70
2019-02-05T04:34:32.557Z,110.40
2019-02-05T04:37:44.115Z,124.80
2019-02-05T04:40:53.439Z,105.73
2019-02-05T04:44:09.877Z,119.47
2019-02-05T04:47:26.120Z,115.60
2019-02-05T04:50:39.071Z,125.00
2019-02-05T04:53:53.145Z,131.87
2019-02-05T04:56:53.197Z,115.33
2019-02-05T05:00:07.900Z,116.53
2019-02-05T05:03:22.651Z,98.10
2019-02-05T05:06:34.829Z,121.53
2019-02-05T05:09:36.085Z,119.07
2019-02-05T05:12:06.704Z,118.23
2019-02-05T05:14:37.399Z,110.07
2019-02-05T05:17:08.649Z,110.97
2019-02-05T05:19:39.266Z,106.03
2019-02-05T05:22:10.039Z,115.93
2019-02-05T05:24:40.751Z,114.63
2019-02-05T05:27:13.032Z,123.77
2019-02-05T05:29:44.396Z,116.80
2019-02-05T05:32:15.099Z,115.73
2019-02-05T05:34:45.651Z,113.73
2019-02-05T05:37:13.851Z,101.33
2019-02-05T05:39:44.535Z,101.60
2019-02-05T05:42:15.428Z,103.13
2019-02-05T05:44:46.524Z,102.40
2019-02-05T05:47:17.101Z,93.83
2019-02-05T05:49:47.935Z,89.63
2019-02-05T05:52:18.622Z,103.80
2019-02-05T05:54:49.360Z,93.63
2019-02-05T05:57:19.957Z,98.87
2019-02-05T05:59:50.823Z,98.07
2019-02-05T06:02:21.735Z,101.30
2019-02-05T06:04:52.542Z,89.83
2019-02-05T06:07:23.041Z,96.33
2019-02-05T06:09:53.591Z,105.17
2019-02-05T06:12:24.252Z,92.23
2019-02-05T06:14:54.700Z,100.80
2019-02-05T06:17:25.220Z,102.97
2019-02-05T06:19:55.898Z,89.93
2019-02-05T06:22:26.607Z,104.30
2019-02-05T06:24:57.281Z,97.03
2019-02-05T06:27:28.212Z,89.37
2019-02-05T06:29:58.737Z,92.30
2019-02-05T06:32:29.606Z,97.20
2019-02-05T06:35:00.492Z,98.73
2019-02-05T06:37:31.138Z,94.97
2019-02-05T06:40:01.774Z,100.20
2019-02-05T06:42:33.045Z,92.93
2019-02-05T06:45:05.103Z,102.20
2019-02-05T06:47:35.675Z,101.47
2019-02-05T06:50:08.282Z,93.43
2019-02-05T06:52:38.988Z,93.73
2019-02-05T06:55:10.512Z,92.83
2019-02-05T06:57:41.251Z,82.73
2019-02-05T07:00:18.024Z,81.07
2019-02-05T07:02:49.233Z,81.27
2019-02-05T07:05:19.986Z,84.57
2019-02-05T07:07:50.629Z,85.27
2019-02-05T07:10:22.935Z,91.47
2019-02-05T07:12:53.796Z,96.80
2019-02-05T07:15:24.349Z,97.73
2019-02-05T07:17:54.952Z,98.00
2019-02-05T07:20:25.557Z,106.20
2019-02-05T07:22:56.602Z,101.30
2019-02-05T07:25:27.254Z,108.07
2019-02-05T07:27:57.852Z,110.43
2019-02-05T07:30:28.514Z,116.90
2019-02-05T07:32:59.175Z,109.70
2019-02-05T07:35:29.797Z,126.93
2019-02-05T07:38:00.882Z,115.30
2019-02-05T07:40:31.562Z,135.70
2019-02-05T07:43:02.437Z,130.90
2019-02-05T07:45:33.148Z,130.20
2019-02-05T07:48:03.782Z,120.50
2019-02-05T07:50:34.431Z,114.23
2019-02-05T07:53:05.641Z,105.57
2019-02-05T07:55:36.244Z,111.60
2019-02-05T07:58:07.095Z,106.70
2019-02-05T08:00:37.907Z,110.80
2019-02-05T08:03:08.530Z,101.27
2019-02-05T08:05:39.116Z,102.37
2019-02-05T08:08:10.323Z,94.73
2019-02-05T08:10:40.962Z,94.07
2019-02-05T08:13:11.690Z,92.73
2019-02-05T08:15:42.490Z,95.97
2019-02-05T08:18:13.065Z,109.50
2019-02-05T08:20:43.799Z,105.77
2019-02-05T08:23:14.550Z,116.60
2019-02-05T08:25:45.376Z,126.77
2019-02-05T08:28:16.137Z,127.53
2019-02-05T08:30:48.923Z,123.73
2019-02-05T08:33:19.617Z,128.40
2019-02-05T08:35:50.160Z,118.23
2019-02-05T08:38:20.751Z,126.87
2019-02-05T08:40:51.261Z,114.43
2019-02-05T08:43:21.804Z,110.07
2019-02-05T08:45:56.726Z,103.90
2019-02-05T08:48:24.710Z,109.53
2019-02-05T08:50:55.395Z,110.67
2019-02-05T08:53:26.051Z,101.50
2019-02-05T08:55:56.533Z,104.33
2019-02-05T08:58:31.050Z,99.33
2019-02-05T09:00:59.491Z,93.97
2019-02-05T09:03:30.073Z,82.80
2019-02-05T09:06:00.656Z,85.97
2019-02-05T09:08:31.318Z,84.23
2019-02-05T09:11:01.961Z,82.53
2019-02-05T09:13:32.640Z,75.67
2019-02-05T09:16:03.307Z,73.63
2019-02-05T09:18:34.093Z,76.00
2019-02-05T09:21:04.919Z,69.90
2019-02-05T09:23:35.862Z,71.20
2019-02-05T09:26:06.559Z,71.73
2019-02-05T09:28:37.110Z,71.47
2019-02-05T09:31:07.645Z,73.10
2019-02-05T09:33:38.419Z,63.63
2019-02-05T09:36:12.555Z,59.03
2019-02-05T09:38:43.366Z,67.77
2019-02-05T09:41:13.864Z,69.00
2019-02-05T09:43:44.718Z,61.27
2019-02-05T09:46:15.379Z,62.63
2019-02-05T09:48:45.948Z,66.37
2019-02-05T09:51:16.464Z,63.83
2019-02-05T09:53:47.355Z,61.60
2019-02-05T09:56:17.791Z,65.57
2019-02-05T09:58:48.140Z,64.27
2019-02-05T10:01:18.736Z,62.43
2019-02-05T10:03:49.268Z,61.23
2019-02-05T10:06:19.801Z,70.87
2019-02-05T10:08:50.660Z,60.70
2019-02-05T10:11:21.164Z,61.43
2019-02-05T10:13:51.480Z,59.70
2019-02-05T10:16:22.040Z,67.33
2019-02-05T10:18:52.751Z,71.17
2019-02-05T10:21:23.212Z,88.30
2019-02-05T10:23:53.887Z,71.00
2019-02-05T10:26:24.481Z,69.23
2019-02-05T10:28:55.037Z,70.40
2019-02-05T10:31:25.631Z,79.23
2019-02-05T10:33:56.575Z,83.37
2019-02-05T10:36:27.172Z,76.53
2019-02-05T10:38:58.166Z,76.25
2019-02-05T10:41:28.811Z,78.90
2019-02-05T10:43:59.346Z,68.23
2019-02-05T10:46:30.151Z,77.20
2019-02-05T10:49:03.299Z,71.55
2019-02-05T10:51:33.028Z,72.83
2019-02-05T10:54:03.565Z,68.53
2019-02-05T10:56:34.131Z,60.23
2019-02-05T10:59:05.211Z,62.93
2019-02-05T11:01:35.965Z,63.83
2019-02-05T11:04:06.826Z,59.67
2019-02-05T11:06:37.619Z,57.03
2019-02-05T11:09:11.377Z,60.43
2019-02-05T11:11:42.096Z,52.83
2019-02-05T11:14:12.801Z,58.37
2019-02-05T11:16:43.722Z,61.83
2019-02-05T11:19:14.404Z,59.87
2019-02-05T11:21:44.902Z,56.33
2019-02-05T11:24:15.715Z,57.87
2019-02-05T11:26:46.563Z,55.07
2019-02-05T11:29:17.256Z,54.47
2019-02-05T11:31:47.948Z,50.57
2019-02-05T11:34:18.553Z,57.80
2019-02-05T11:36:49.217Z,64.17
2019-02-05T11:39:19.813Z,57.97
2019-02-05T11:41:50.379Z,60.23
2019-02-05T11:44:21.023Z,59.77
2019-02-05T11:46:51.755Z,68.27
2019-02-05T11:49:22.490Z,66.70
2019-02-05T11:51:53.139Z,65.27
2019-02-05T11:54:23.827Z,64.03
2019-02-05T11:56:54.524Z,62.60
2019-02-05T11:59:25.155Z,61.20
2019-02-05T12:01:55.957Z,62.57
2019-02-05T12:04:27.040Z,63.13
2019-02-05T12:06:57.798Z,60.67
2019-02-05T12:09:28.451Z,61.73
2019-02-05T12:11:59.140Z,54.00
2019-02-05T12:14:29.758Z,57.60
2019-02-05T12:17:00.337Z,60.93
2019-02-05T12:19:31.049Z,50.57
2019-02-05T12:22:01.808Z,55.30
2019-02-05T12:24:32.599Z,50.90
2019-02-05T12:27:03.188Z,49.07
2019-02-05T12:29:33.909Z,45.03
2019-02-05T12:32:04.744Z,47.37
2019-02-05T12:34:35.748Z,43.63
2019-02-05T12:37:06.430Z,49.00
2019-02-05T12:39:37.148Z,41.90
2019-02-05T12:42:07.808Z,40.10
2019-02-05T12:44:38.518Z,45.57
2019-02-05T12:47:09.089Z,40.83
2019-02-05T12:49:40.008Z,44.50
2019-02-05T12:52:10.921Z,37.47
2019-02-05T12:54:41.657Z,37.07
2019-02-05T12:57:12.221Z,43.70
2019-02-05T12:59:44.320Z,44.40
2019-02-05T13:02:15.229Z,46.33
2019-02-05T13:04:46.844Z,43.60
2019-02-05T13:07:17.938Z,50.03
2019-02-05T13:09:48.604Z,46.03
2019-02-05T13:12:19.221Z,47.83
2019-02-05T13:14:49.928Z,52.90
2019-02-05T13:17:20.613Z,49.80
2019-02-05T13:19:51.262Z,53.63
2019-02-05T13:22:21.949Z,54.00
2019-02-05T13:24:52.509Z,49.17
2019-02-05T13:27:23.208Z,50.33
2019-02-05T13:29:54.393Z,49.03
2019-02-05T13:32:25.003Z,51.43
2019-02-05T13:34:55.674Z,58.87
2019-02-05T13:37:26.329Z,59.67
2019-02-05T13:39:57.025Z,59.17
2019-02-05T13:42:28.099Z,44.57
2019-02-05T13:44:58.674Z,46.33
2019-02-05T13:47:29.455Z,47.60
2019-02-05T13:49:59.883Z,49.80
2019-02-05T13:52:30.510Z,44.67
2019-02-05T13:55:01.109Z,48.80
2019-02-05T13:57:31.643Z,42.70
2019-02-05T14:00:02.203Z,40.27
2019-02-05T14:02:32.875Z,37.70
2019-02-05T14:05:03.627Z,39.33
2019-02-05T14:07:34.221Z,37.90
2019-02-05T14:10:10.143Z,36.70
2019-02-05T14:12:40.824Z,39.40
2019-02-05T14:15:12.737Z,37.47
2019-02-05T14:17:43.341Z,39.23
2019-02-05T14:20:14.669Z,41.27
2019-02-05T14:22:45.548Z,43.87
2019-02-05T14:25:16.412Z,40.43
2019-02-05T14:27:47.003Z,39.90
2019-02-05T14:30:27.150Z,37.83
2019-02-05T14:32:57.829Z,40.43
2019-02-05T14:35:28.589Z,38.17
2019-02-05T14:37:59.329Z,43.20
2019-02-05T14:40:29.929Z,45.60
2019-02-05T14:43:00.589Z,43.03
2019-02-05T14:45:31.228Z,39.17
2019-02-05T14:48:02.343Z,41.53
2019-02-05T14:50:33.983Z,47.87
2019-02-05T14:53:05.973Z,56.07
2019-02-05T14:55:36.641Z,53.33
2019-02-05T14:58:10.549Z,59.47
2019-02-05T15:00:41.580Z,69.37
2019-02-05T15:03:14.131Z,70.67
2019-02-05T15:05:46.373Z,61.10
2019-02-05T15:08:19.023Z,59.60
2019-02-05T15:10:49.722Z,59.37
2019-02-05T15:13:20.324Z,60.03
2019-02-05T15:15:50.989Z,105.70
2019-02-05T15:18:23.682Z,103.90
2019-02-05T15:20:54.560Z,128.77
2019-02-05T15:23:25.283Z,91.27
2019-02-05T15:25:56.409Z,90.53
2019-02-05T15:28:26.926Z,151.77
2019-02-05T15:30:57.649Z,282.13
2019-02-05T15:33:36.549Z,396.63
2019-02-05T15:36:19.692Z,312.17
2019-02-05T15:38:50.364Z,232.23
2019-02-05T15:41:20.910Z,176.63
2019-02-05T15:43:51.486Z,114.40
2019-02-05T15:46:22.309Z,93.10
2019-02-05T15:48:53.478Z,68.30
2019-02-05T15:51:24.556Z,61.77
2019-02-05T15:53:55.303Z,59.30
2019-02-05T15:56:25.967Z,49.27
2019-02-05T15:58:56.685Z,51.27
2019-02-05T16:01:27.758Z,46.00
2019-02-05T16:03:58.784Z,43.30
2019-02-05T16:06:29.529Z,40.73
2019-02-05T16:09:00.433Z,44.27
2019-02-05T16:11:31.164Z,42.50
2019-02-05T16:14:02.730Z,39.47
2019-02-05T16:16:33.491Z,47.37
2019-02-05T16:19:04.118Z,49.57
2019-02-05T16:21:34.681Z,49.10
2019-02-05T16:24:05.974Z,50.27
2019-02-05T16:26:36.502Z,53.13
2019-02-05T16:29:07.452Z,48.43
2019-02-05T16:31:38.186Z,46.90
2019-02-05T16:34:08.793Z,47.53
2019-02-05T16:36:39.408Z,50.40
2019-02-05T16:39:11.989Z,45.20
2019-02-05T16:41:42.590Z,42.93
2019-02-05T16:44:16.163Z,38.23
2019-02-05T16:46:49.662Z,37.87
2019-02-05T16:49:22.495Z,39.00
2019-02-05T16:51:53.394Z,32.43
2019-02-05T16:54:24.355Z,28.07
2019-02-05T16:56:55.237Z,34.07
2019-02-05T16:59:26.893Z,29.20
2019-02-05T17:01:58.212Z,30.73
2019-02-05T17:04:38.732Z,33.90
2019-02-05T17:07:09.942Z,34.53
2019-02-05T17:09:41.302Z,35.17
2019-02-05T17:12:12.468Z,36.23
2019-02-05T17:14:46.780Z,35.73
2019-02-05T17:17:22.577Z,32.83
2019-02-05T17:19:53.312Z,31.33
2019-02-05T17:22:23.969Z,36.20
2019-02-05T17:24:56.708Z,33.23
2019-02-05T17:27:31.076Z,29.67
2019-02-05T17:30:02.887Z,32.60
2019-02-05T17:32:40.411Z,29.90
2019-02-05T17:35:11.641Z,35.90
2019-02-05T17:37:42.406Z,32.03
2019-02-05T17:40:17.717Z,38.80
2019-02-05T17:42:49.808Z,36.63
2019-02-05T17:45:32.408Z,35.63
2019-02-05T17:48:07.536Z,36.63
2019-02-05T17:50:41.292Z,36.40
2019-02-05T17:53:15.332Z,42.27
2019-02-05T17:55:47.028Z,40.27
2019-02-05T17:58:17.867Z,37.93
2019-02-05T18:00:50.479Z,39.63
2019-02-05T18:03:22.974Z,30.70
2019-02-05T18:05:55.681Z,35.17
2019-02-05T18:08:26.246Z,35.70
2019-02-05T18:10:59.712Z,36.37
2019-02-05T18:13:33.382Z,32.63
2019-02-05T18:16:26.013Z,33.83
2019-02-05T18:18:58.724Z,31.63
2019-02-05T18:21:42.133Z,32.00
2019-02-05T18:24:13.727Z,38.97
2019-02-05T18:26:45.483Z,37.67
2019-02-05T18:29:16.008Z,33.30
2019-02-05T18:31:52.252Z,37.20
2019-02-05T18:34:24.937Z,43.47
2019-02-05T18:36:55.583Z,37.37
2019-02-05T18:39:27.434Z,37.40
2019-02-05T18:41:59.245Z,31.97
2019-02-05T18:44:29.843Z,43.07
2019-02-05T18:47:05.120Z,34.93
2019-02-05T18:49:40.032Z,37.13
2019-02-05T18:52:16.110Z,35.07
2019-02-05T18:54:47.818Z,39.70
2019-02-05T18:57:30.667Z,37.23
2019-02-05T19:00:05.289Z,33.43
2019-02-05T19:02:37.103Z,32.10
2019-02-05T19:05:11.313Z,38.43
2019-02-05T19:07:43.897Z,39.20
2019-02-05T19:10:28.274Z,39.93
2019-02-05T19:13:06.223Z,36.27
2019-02-05T19:15:39.303Z,35.47
2019-02-05T19:18:10.885Z,37.47
2019-02-05T19:20:44.697Z,34.80
2019-02-05T19:23:17.734Z,35.10
2019-02-05T19:26:09.004Z,43.90
2019-02-05T19:28:54.133Z,36.70
2019-02-05T19:31:34.837Z,41.70
2019-02-05T19:34:09.762Z,36.87
2019-02-05T19:36:42.523Z,36.83
2019-02-05T19:39:21.572Z,37.70
2019-02-05T19:41:50.728Z,38.53
2019-02-05T19:44:33.536Z,38.00
2019-02-05T19:47:20.532Z,41.73
2019-02-05T19:49:55.613Z,44.00
2019-02-05T19:52:27.770Z,39.63
2019-02-05T19:55:02.761Z,42.80
2019-02-05T19:57:34.171Z,43.03
2019-02-05T20:00:08.050Z,45.40
2019-02-05T20:02:39.096Z,46.50
2019-02-05T20:05:12.003Z,44.37
2019-02-05T20:07:47.746Z,45.23
2019-02-05T20:10:22.491Z,50.50
2019-02-05T20:12:55.432Z,49.23
2019-02-05T20:15:28.425Z,50.63
2019-02-05T20:18:00.983Z,80.07
2019-02-05T20:20:34.200Z,101.27
2019-02-05T20:23:05.260Z,115.20
2019-02-05T20:25:36.080Z,106.63
2019-02-05T20:28:06.749Z,126.27
2019-02-05T20:30:43.342Z,136.93
2019-02-05T20:33:14.321Z,73.40
2019-02-05T20:35:44.939Z,121.37
2019-02-05T20:38:16.847Z,133.97
2019-02-05T20:40:49.794Z,90.80
2019-02-05T20:43:22.177Z,123.10
2019-02-05T20:45:58.010Z,127.30
2019-02-05T20:48:39.493Z,150.17
2019-02-05T20:51:10.194Z,147.23
2019-02-05T20:53:44.079Z,95.37
2019-02-05T20:56:16.750Z,78.40
2019-02-05T20:58:53.336Z,66.97
2019-02-05T21:01:31.342Z,84.53
2019-02-05T21:04:05.466Z,88.87
2019-02-05T21:06:40.722Z,116.37
2019-02-05T21:09:20.487Z,113.93
2019-02-05T21:11:51.202Z,116.90
2019-02-05T21:14:21.893Z,102.20
2019-02-05T21:16:57.323Z,90.90
2019-02-05T21:19:40.322Z,61.87
2019-02-05T21:22:10.992Z,59.77
2019-02-05T21:24:45.121Z,56.30
2019-02-05T21:27:18.616Z,54.40
2019-02-05T21:29:54.773Z,62.20
2019-02-05T21:32:26.402Z,62.80
2019-02-05T21:34:56.916Z,51.77
2019-02-05T21:37:27.589Z,55.57
2019-02-05T21:40:02.592Z,53.40
2019-02-05T21:42:35.255Z,51.30
2019-02-05T21:45:09.851Z,51.87
2019-02-05T21:47:44.031Z,63.40
2019-02-05T21:50:20.804Z,59.93
2019-02-05T21:52:52.887Z,60.77
2019-02-05T21:55:23.890Z,55.37
2019-02-05T21:57:54.872Z,48.97
2019-02-05T22:00:30.988Z,49.20
2019-02-05T22:03:01.813Z,55.30
2019-02-05T22:05:32.541Z,60.53
2019-02-05T22:08:03.960Z,77.23
2019-02-05T22:10:34.715Z,65.80
2019-02-05T22:13:07.244Z,75.50
2019-02-05T22:15:39.121Z,59.20
2019-02-05T22:18:09.715Z,48.47
2019-02-05T22:20:40.549Z,52.30
2019-02-05T22:23:11.392Z,48.70
2019-02-05T22:25:42.034Z,54.73
2019-02-05T22:28:12.661Z,56.90
2019-02-05T22:30:43.164Z,48.27
2019-02-05T22:33:13.723Z,56.90
2019-02-05T22:35:44.331Z,63.67
2019-02-05T22:38:15.006Z,82.97
2019-02-05T22:40:45.577Z,96.10
2019-02-05T22:43:16.315Z,90.43
2019-02-05T22:45:47.010Z,74.97
2019-02-05T22:48:20.478Z,66.67
2019-02-05T22:50:51.284Z,63.07
2019-02-05T22:53:22.780Z,54.73
2019-02-05T22:55:53.335Z,54.93
2019-02-05T22:58:24.127Z,55.87
2019-02-05T23:01:39.912Z,54.50
2019-02-05T23:04:51.305Z,60.27
2019-02-05T23:07:24.653Z,53.97
2019-02-05T23:10:33.362Z,62.23
2019-02-05T23:13:09.609Z,54.53
2019-02-05T23:15:44.687Z,53.63
2019-02-05T23:18:16.274Z,51.07
2019-02-05T23:20:46.981Z,47.33
2019-02-05T23:23:17.660Z,67.20
2019-02-05T23:25:48.359Z,89.73
2019-02-05T23:28:18.873Z,69.90
2019-02-05T23:30:49.737Z,49.43
2019-02-05T23:33:20.468Z,46.07
2019-02-05T23:35:51.147Z,59.07
2019-02-05T23:38:29.037Z,51.87
2019-02-05T23:40:54.177Z,51.63
2019-02-05T23:43:24.636Z,51.20
2019-02-05T23:46:01.440Z,51.57
2019-02-05T23:48:27.588Z,51.57
2019-02-05T23:50:58.074Z,52.87
2019-02-05T23:53:28.978Z,57.57
2019-02-05T23:55:59.717Z,55.63
2019-02-05T23:58:31.349Z,55.90
